KTAD/TAD METAR and TAF weather

Enter ICAO airport designator
Station Type Date Time Source
KTAD METAR 2019/02/16 06:54 UTC NOAA

KTAD 160654Z AUTO 00000KT 10SM CLR 07/M14 A2972 RMK AO2 SLP014 T00671144 401781044


Station Type Date Time Source
KTAD Decoded METAR 2019/02/16 06:54 UTC NOAA

Trinidad, Perry Stokes Airport, CO, United States (KTAD) 37-16N 104-26W
Feb 16, 2019 - 01:54 AM EST / 2019.02.16 0654 UTC
Wind: Calm:0
Visibility: 10 mile(s):0
Sky conditions: clear
Temperature: 44.1 F (6.7 C)
Dew Point: 6.1 F (-14.4 C)
Relative Humidity: 20%
Pressure (altimeter): 29.72 in. Hg (1006 hPa)
ob: KTAD 160654Z AUTO 00000KT 10SM CLR 07/M14 A2972 RMK AO2 SLP014 T00671144 401781044
cycle: 7

Station Type Date Time Source
KTAD TAF UTC NOAA

Error!


Example: see airport list